Time;durP1;ratioP1;P1;durP2;ratioP2;P2;SDS_P1;SDS_P2;PMS_P1;PMS_P2;Temp;Humidity;BMP_temperature;BMP_pressure;BME280_temperature;BME280_humidity;BME280_pressure;Samples;Min_cycle;Max_cycle;Signal;HPM_P1;HPM_P2
2024/02/14 00:00:30;1040464.00;3.47;1804.27;73578.00;0.25;127.94;;;;;11.20;1.00;;;;;;2272350;61;2369;-87
2024/02/14 00:02:57;1099299.00;3.66;1909.17;71544.00;0.24;124.43;;;;;11.10;1.00;;;;;;2272369;61;1293;-86
2024/02/14 00:05:23;831536.00;2.77;1436.18;34038.00;0.11;59.57;;;;;11.50;1.00;;;;;;2272122;61;958;-87
2024/02/14 00:07:52;1556402.00;5.19;2749.71;45308.00;0.15;79.07;;;;;10.90;1.00;;;;;;2272366;61;1078;-86
2024/02/14 00:10:19;951374.00;3.17;1646.53;81787.00;0.27;142.12;;;;;10.60;1.00;;;;;;2272320;61;999;-87
2024/02/14 00:12:46;920545.00;3.07;1592.23;36941.00;0.12;64.60;;;;;10.70;1.00;;;;;;2272329;61;1297;-87
2024/02/14 00:15:13;1010240.00;3.37;1750.62;35594.00;0.12;62.26;;;;;10.50;1.00;;;;;;2272292;61;1234;-87
2024/02/14 00:17:40;1174604.00;3.92;2044.37;28853.00;0.10;50.60;;;;;10.20;1.00;;;;;;2272264;61;1915;-86
2024/02/14 00:20:12;1155913.00;3.85;2010.71;75411.00;0.25;131.11;;;;;10.00;1.00;;;;;;2272334;61;910;-87
2024/02/14 00:22:39;842450.00;2.81;1455.26;21217.00;0.07;37.38;;;;;10.20;1.00;;;;;;2272271;61;1457;-86
2024/02/14 00:25:09;1539069.00;5.13;2716.85;73215.00;0.24;127.32;;;;;10.20;1.00;;;;;;2272324;61;1055;-85
2024/02/14 00:27:36;1198559.00;4.00;2087.61;77715.00;0.26;135.09;;;;;10.00;1.00;;;;;;2272314;61;1218;-88
2024/02/14 00:30:03;1073329.00;3.58;1862.79;35627.00;0.12;62.32;;;;;10.30;1.00;;;;;;2272243;61;1530;-87
2024/02/14 00:32:30;1795763.00;5.99;3213.05;233745.00;0.78;403.99;;;;;10.50;1.00;;;;;;2272275;61;1284;-86
2024/02/14 00:34:57;898540.00;3.00;1553.56;129409.00;0.43;224.31;;;;;10.60;1.00;;;;;;2272277;61;1090;-88
2024/02/14 00:37:24;437948.00;1.46;755.05;90886.00;0.30;157.84;;;;;10.70;1.00;;;;;;2272238;61;2008;-86
2024/02/14 00:39:51;412257.00;1.37;710.88;90666.00;0.30;157.46;;;;;10.70;1.00;;;;;;2272179;61;1117;-87
2024/02/14 00:42:20;333943.00;1.11;576.26;115944.00;0.39;201.09;;;;;10.60;1.00;;;;;;2272210;61;1417;-85
2024/02/14 00:44:47;385679.00;1.29;665.19;94356.00;0.31;163.83;;;;;10.40;1.00;;;;;;2272253;61;1066;-86
2024/02/14 00:47:14;117376928.00;391.26;65505320.00;93701.00;0.31;162.70;;;;;10.20;1.00;;;;;;2272230;61;1101;-86
2024/02/14 00:49:41;615392.00;2.05;1060.80;84190.00;0.28;146.27;;;;;10.50;1.00;;;;;;2272242;61;1085;-86
2024/02/14 00:52:08;325467.00;1.08;561.69;97843.00;0.33;169.85;;;;;10.10;1.00;;;;;;2272251;61;1025;-87
2024/02/14 00:54:35;298570.00;1.00;515.46;99685.00;0.33;173.03;;;;;9.30;1.00;;;;;;2272149;61;1687;-87
2024/02/14 00:57:02;249621.00;0.83;431.30;57797.00;0.19;100.67;;;;;8.70;1.00;;;;;;2272079;61;2159;-86
2024/02/14 00:59:31;57393.00;0.19;99.97;0.00;0.00;0.62;;;;;9.00;1.00;;;;;;2272188;61;1926;-86
2024/02/14 01:01:57;242770.00;0.81;419.52;0.00;0.00;0.62;;;;;9.10;1.00;;;;;;2272097;61;1721;-87
2024/02/14 01:04:28;128040.00;0.43;221.95;0.00;0.00;0.62;;;;;9.30;1.00;;;;;;2272831;61;1287;-85
2024/02/14 01:06:54;224930.00;0.75;388.83;88402.00;0.29;153.55;;;;;9.60;1.00;;;;;;2272821;61;1271;-87
2024/02/14 01:09:21;238875.00;0.80;412.82;92546.00;0.31;160.70;;;;;9.40;1.00;;;;;;2272924;61;1089;-86
2024/02/14 01:11:48;16783.00;0.06;29.70;0.00;0.00;0.62;;;;;9.80;1.00;;;;;;2272921;61;1246;-87
2024/02/14 01:14:15;360979.00;1.20;622.73;44847.00;0.15;78.27;;;;;9.60;1.00;;;;;;2272858;61;1282;-86
2024/02/14 01:16:47;215078.00;0.72;371.87;67208.00;0.22;116.94;;;;;9.60;1.00;;;;;;2272843;61;1016;-85
2024/02/14 01:19:14;232786.00;0.78;402.34;0.00;0.00;0.62;;;;;9.50;1.00;;;;;;2272821;61;1996;-86
2024/02/14 01:21:41;100097.00;0.33;173.74;0.00;0.00;0.62;;;;;9.40;1.00;;;;;;2272832;61;1020;-86
2024/02/14 01:24:09;114714.00;0.38;198.96;0.00;0.00;0.62;;;;;9.80;1.00;;;;;;2272858;61;1266;-87
2024/02/14 01:26:35;55196.00;0.18;96.17;0.00;0.00;0.62;;;;;10.20;1.00;;;;;;2272809;61;1685;-86
2024/02/14 01:29:02;358393.00;1.19;618.29;45573.00;0.15;79.53;;;;;10.50;1.00;;;;;;2272826;61;1098;-87
2024/02/14 01:31:29;390224.00;1.30;673.00;17514.00;0.06;30.96;;;;;10.20;1.00;;;;;;2272837;61;1043;-85
2024/02/14 01:34:01;76334.00;0.25;132.70;0.00;0.00;0.62;;;;;10.10;1.00;;;;;;2272784;61;1433;-86
2024/02/14 01:36:28;134393.00;0.45;232.90;0.00;0.00;0.62;;;;;10.20;1.00;;;;;;2272764;61;1109;-85
2024/02/14 01:38:55;162946.00;0.54;282.11;9833.00;0.03;17.66;;;;;10.30;1.00;;;;;;2272750;61;1992;-85
2024/02/14 01:41:22;195398.00;0.65;338.00;49905.00;0.17;87.02;;;;;10.40;1.00;;;;;;2272788;61;805;-88
2024/02/14 01:43:50;44420.00;0.15;77.53;0.00;0.00;0.62;;;;;10.20;1.00;;;;;;2272719;61;1383;-86
2024/02/14 01:46:18;293013.00;0.98;505.91;54143.00;0.18;94.35;;;;;10.40;1.00;;;;;;2272737;61;1056;-85
2024/02/14 01:48:45;35850.00;0.12;62.71;0.00;0.00;0.62;;;;;10.10;1.00;;;;;;2272781;61;1105;-86
2024/02/14 01:51:17;295521.00;0.99;510.22;16547.00;0.06;29.29;;;;;10.10;1.00;;;;;;2272532;61;1951;-85
2024/02/14 01:53:46;153900.00;0.51;266.53;0.00;0.00;0.62;;;;;10.30;1.00;;;;;;2272606;61;1743;-86
2024/02/14 01:56:13;203001.00;0.68;351.09;0.00;0.00;0.62;;;;;10.80;1.00;;;;;;2272674;61;1144;-86
2024/02/14 01:58:40;384930.00;1.28;663.90;17369.00;0.06;30.71;;;;;10.80;1.00;;;;;;2272709;61;2000;-87
2024/02/14 02:01:09;332588.00;1.11;573.93;0.00;0.00;0.62;;;;;10.30;1.00;;;;;;2272726;61;1087;-86
2024/02/14 02:03:37;259585.00;0.87;448.43;49325.00;0.16;86.02;;;;;10.40;1.00;;;;;;2272672;61;1362;-86
2024/02/14 02:06:06;40935.00;0.14;71.51;0.00;0.00;0.62;;;;;10.60;1.00;;;;;;2272694;61;1103;-87
2024/02/14 02:08:35;26188.00;0.09;45.98;0.00;0.00;0.62;;;;;10.40;1.00;;;;;;2272677;61;1033;-86
2024/02/14 02:11:02;234352.00;0.78;405.04;50094.00;0.17;87.35;;;;;10.60;1.00;;;;;;2272664;61;1102;-87
2024/02/14 02:13:29;61899.00;0.21;107.76;0.00;0.00;0.62;;;;;10.50;1.00;;;;;;2272664;61;1392;-87
2024/02/14 02:15:57;115094.00;0.38;199.62;0.00;0.00;0.62;;;;;9.60;1.00;;;;;;2272686;61;2055;-86
2024/02/14 02:18:25;33066.00;0.11;57.89;0.00;0.00;0.62;;;;;9.70;1.00;;;;;;2272662;61;2001;-86
2024/02/14 02:20:52;182733.00;0.61;316.20;148.00;0.00;0.88;;;;;10.20;1.00;;;;;;2272636;61;1078;-87
2024/02/14 02:23:21;246001.00;0.82;425.07;56975.00;0.19;99.25;;;;;10.30;1.00;;;;;;2272644;61;1376;-85
2024/02/14 02:25:50;71225.00;0.24;123.88;0.00;0.00;0.62;;;;;10.50;1.00;;;;;;2272628;61;1116;-85
2024/02/14 02:28:17;155640.00;0.52;269.53;0.00;0.00;0.62;;;;;10.10;1.00;;;;;;2272621;61;1126;-85
2024/02/14 02:30:45;133563.00;0.45;231.47;8577.00;0.03;15.48;;;;;10.10;1.00;;;;;;2272603;61;1070;-86
2024/02/14 02:33:13;425309.00;1.42;733.32;57808.00;0.19;100.69;;;;;10.60;1.00;;;;;;2272645;61;1411;-88
2024/02/14 02:35:44;55720.00;0.19;97.08;0.00;0.00;0.62;;;;;10.80;1.00;;;;;;2272581;61;1131;-87
2024/02/14 02:38:11;106264.00;0.35;184.38;0.00;0.00;0.62;;;;;11.10;1.00;;;;;;2272342;61;1943;-86
2024/02/14 02:40:40;165524.00;0.55;286.56;0.00;0.00;0.62;;;;;10.90;1.00;;;;;;2272355;61;1068;-87
2024/02/14 02:43:07;81764.00;0.27;142.08;0.00;0.00;0.62;;;;;10.80;1.00;;;;;;2272609;61;1348;-87
2024/02/14 02:45:34;66304.00;0.22;115.37;0.00;0.00;0.62;;;;;10.70;1.00;;;;;;2272522;61;1778;-86
2024/02/14 02:48:02;104527.00;0.35;181.39;0.00;0.00;0.62;;;;;10.40;1.00;;;;;;2272540;61;1010;-87
2024/02/14 02:50:30;113831.00;0.38;197.44;0.00;0.00;0.62;;;;;10.40;1.00;;;;;;2272538;61;1091;-86
2024/02/14 02:52:56;85433.00;0.28;148.42;0.00;0.00;0.62;;;;;10.40;1.00;;;;;;2272536;61;1336;-86
2024/02/14 02:55:24;66961.00;0.22;116.51;0.00;0.00;0.62;;;;;10.30;1.00;;;;;;2272465;61;1031;-86
2024/02/14 02:57:52;38892.00;0.13;67.97;0.00;0.00;0.62;;;;;10.30;1.00;;;;;;2272509;61;1107;-86
2024/02/14 03:00:21;95294.00;0.32;165.45;0.00;0.00;0.62;;;;;10.50;1.00;;;;;;2272465;61;2018;-86
2024/02/14 03:02:48;20178.00;0.07;35.58;0.00;0.00;0.62;;;;;10.70;1.00;;;;;;2272495;61;1357;-85
2024/02/14 03:05:18;92903.00;0.31;161.32;0.00;0.00;0.62;;;;;10.70;1.00;;;;;;2272418;61;2323;-86
2024/02/14 03:07:47;86475.00;0.29;150.22;0.00;0.00;0.62;;;;;10.50;1.00;;;;;;2272323;61;1008;-86
2024/02/14 03:10:17;126326.00;0.42;218.99;0.00;0.00;0.62;;;;;10.60;1.00;;;;;;2272558;61;1104;-85
2024/02/14 03:12:48;22621.00;0.08;39.81;0.00;0.00;0.62;;;;;10.70;1.00;;;;;;2272505;61;1368;-87
2024/02/14 03:15:18;56260.00;0.19;98.01;0.00;0.00;0.62;;;;;10.90;1.00;;;;;;2272459;61;1102;-84
2024/02/14 03:17:45;88507.00;0.30;153.73;0.00;0.00;0.62;;;;;10.90;1.00;;;;;;2272403;61;1715;-87
2024/02/14 03:20:13;69299.00;0.23;120.55;0.00;0.00;0.62;;;;;10.40;1.00;;;;;;2272313;61;2003;-86
2024/02/14 03:22:44;138794.00;0.46;240.49;0.00;0.00;0.62;;;;;10.30;1.00;;;;;;2272418;61;1379;-85
2024/02/14 03:25:14;266022.00;0.89;459.50;42275.00;0.14;73.82;;;;;10.20;1.00;;;;;;2272222;61;1429;-87
2024/02/14 03:27:41;323908.00;1.08;559.02;0.00;0.00;0.62;;;;;9.90;1.00;;;;;;2272385;61;1114;-85
2024/02/14 03:30:09;47249.00;0.16;82.43;0.00;0.00;0.62;;;;;10.20;1.00;;;;;;2272396;61;1027;-87
2024/02/14 03:32:37;153479.00;0.51;265.80;25349.00;0.08;44.53;;;;;10.10;1.00;;;;;;2272342;61;1703;-86
2024/02/14 03:35:04;63576.00;0.21;110.66;0.00;0.00;0.62;;;;;10.40;1.00;;;;;;2272404;61;1107;-86
2024/02/14 03:37:33;177440.00;0.59;307.08;0.00;0.00;0.62;;;;;10.70;1.00;;;;;;2272473;61;1002;-85
2024/02/14 03:40:04;39893.00;0.13;69.70;0.00;0.00;0.62;;;;;10.90;1.00;;;;;;2272418;61;2042;-85
2024/02/14 03:42:31;184178.00;0.61;318.68;44471.00;0.15;77.62;;;;;9.80;1.00;;;;;;2272345;61;2416;-86
2024/02/14 03:45:02;24333.00;0.08;42.77;0.00;0.00;0.62;;;;;9.20;1.00;;;;;;2272378;61;1006;-87
2024/02/14 03:47:31;129881.00;0.43;225.12;0.00;0.00;0.62;;;;;9.00;1.00;;;;;;2272395;61;1518;-86
2024/02/14 03:49:59;68273.00;0.23;118.78;0.00;0.00;0.62;;;;;9.40;1.00;;;;;;2272391;61;1083;-85
2024/02/14 03:52:26;199721.00;0.67;345.44;30650.00;0.10;53.71;;;;;9.60;1.00;;;;;;2272349;61;1352;-85
2024/02/14 03:54:53;100009.00;0.33;173.59;0.00;0.00;0.62;;;;;9.80;1.00;;;;;;2272251;61;1098;-85
2024/02/14 03:57:20;224482.00;0.75;388.06;0.00;0.00;0.62;;;;;9.70;1.00;;;;;;2272187;61;1059;-87
2024/02/14 03:59:47;21515.00;0.07;37.89;0.00;0.00;0.62;;;;;9.70;1.00;;;;;;2272320;61;1915;-86
2024/02/14 04:02:14;141102.00;0.47;244.47;0.00;0.00;0.62;;;;;10.00;1.00;;;;;;2272392;61;1150;-85
2024/02/14 04:04:43;74370.00;0.25;129.31;0.00;0.00;0.62;;;;;10.00;1.00;;;;;;2272310;61;1344;-86
2024/02/14 04:07:12;70541.00;0.24;122.70;0.00;0.00;0.62;;;;;10.30;1.00;;;;;;2272312;61;1098;-87
2024/02/14 04:09:39;111215.00;0.37;192.93;0.00;0.00;0.62;;;;;10.60;1.00;;;;;;2272332;61;2096;-86
2024/02/14 04:12:06;96758.00;0.32;167.98;0.00;0.00;0.62;;;;;10.30;1.00;;;;;;2272348;61;1047;-87
2024/02/14 04:14:33;231884.00;0.77;400.79;8053.00;0.03;14.58;;;;;10.30;1.00;;;;;;2272233;61;1248;-86
2024/02/14 04:17:00;130749.00;0.44;226.62;55888.00;0.19;97.37;;;;;9.80;1.00;;;;;;2272164;61;1015;-84
2024/02/14 04:19:28;400545.00;1.34;690.74;18264.00;0.06;32.26;;;;;9.90;1.00;;;;;;2272209;61;1913;-85
2024/02/14 04:21:55;229736.00;0.77;397.09;991.00;0.00;2.34;;;;;10.10;1.00;;;;;;2272270;61;1031;-86
2024/02/14 04:24:23;1139427.00;3.80;1981.08;135802.00;0.45;235.33;;;;;10.30;1.00;;;;;;2272257;61;1684;-87
2024/02/14 04:26:50;649560.00;2.17;1119.88;54263.00;0.18;94.56;;;;;10.70;1.00;;;;;;2271963;61;2240;-86
2024/02/14 04:29:17;1186033.00;3.95;2064.99;120568.00;0.40;209.06;;;;;10.80;1.00;;;;;;2272274;61;1099;-86
2024/02/14 04:31:44;848465.00;2.83;1465.78;110952.00;0.37;192.47;;;;;10.90;1.00;;;;;;2272269;61;1070;-86
2024/02/14 04:34:13;1028371.00;3.43;1782.79;58537.00;0.20;101.95;;;;;10.70;1.00;;;;;;2272249;61;1360;-86
2024/02/14 04:36:40;987688.00;3.29;1710.68;76616.00;0.26;133.19;;;;;10.90;1.00;;;;;;2271963;61;1087;-86
2024/02/14 04:39:09;1389028.00;4.63;2435.99;62018.00;0.21;107.97;;;;;10.60;1.00;;;;;;2272111;61;2013;-85
2024/02/14 04:41:38;1107153.00;3.69;1923.22;108298.00;0.36;187.89;;;;;10.10;1.00;;;;;;2272248;61;1022;-85
2024/02/14 04:44:07;1060294.00;3.53;1839.56;69688.00;0.23;121.22;;;;;10.20;1.00;;;;;;2272122;61;1480;-86
2024/02/14 04:46:34;1299740.00;4.33;2271.63;75755.00;0.25;131.70;;;;;10.00;1.00;;;;;;2272198;61;1133;-84
2024/02/14 04:49:02;1128594.00;3.76;1961.64;26828.00;0.09;47.09;;;;;10.70;1.00;;;;;;2272113;61;1818;-87
2024/02/14 04:51:29;1005911.00;3.35;1742.94;178536.00;0.60;308.97;;;;;10.90;1.00;;;;;;2272186;61;1112;-86
2024/02/14 04:53:58;118675456.00;395.58;67705480.00;254855.00;0.85;440.30;;;;;10.60;1.00;;;;;;2272183;61;1274;-86
2024/02/14 04:56:25;1254899.00;4.18;2189.80;198956.00;0.66;344.13;;;;;10.20;1.00;;;;;;2271906;61;1704;-86
2024/02/14 04:58:53;1066360.00;3.55;1850.37;135671.00;0.45;235.11;;;;;10.40;1.00;;;;;;2271838;61;1986;-85
2024/02/14 05:01:20;1024210.00;3.41;1775.40;116875.00;0.39;202.69;;;;;10.20;1.00;;;;;;2272175;61;1114;-86
2024/02/14 05:03:48;1342085.00;4.47;2349.33;148752.00;0.50;257.66;;;;;10.20;1.00;;;;;;2272276;61;1261;-86
2024/02/14 05:06:15;2233943.00;7.45;4116.28;373976.00;1.25;645.07;;;;;10.70;1.00;;;;;;2271960;61;2129;-88
2024/02/14 05:08:42;1763200.00;5.88;3148.89;173399.00;0.58;300.12;;;;;11.40;1.00;;;;;;2272006;61;1895;-86
2024/02/14 05:11:09;678710.00;2.26;1170.34;98292.00;0.33;170.62;;;;;11.10;1.00;;;;;;2271889;61;1366;-87
2024/02/14 05:13:37;747494.00;2.49;1289.70;89692.00;0.30;155.78;;;;;11.00;1.00;;;;;;2271979;61;1430;-85
2024/02/14 05:16:08;292488.00;0.97;505.01;89507.00;0.30;155.46;;;;;10.70;1.00;;;;;;2271983;61;1212;-87
2024/02/14 05:18:35;505237.00;1.68;870.84;93537.00;0.31;162.41;;;;;10.60;1.00;;;;;;2272224;61;1079;-87
2024/02/14 05:21:05;427197.00;1.42;736.57;89999.00;0.30;156.31;;;;;10.50;1.00;;;;;;2272074;61;1935;-87
2024/02/14 05:23:32;541789.00;1.81;933.81;87868.00;0.29;152.63;;;;;10.00;1.00;;;;;;2272201;61;1380;-84
2024/02/14 05:25:59;342279.00;1.14;590.59;100800.00;0.34;174.95;;;;;10.00;1.00;;;;;;2272200;61;1225;-85
2024/02/14 05:28:26;373295.00;1.24;643.90;89423.00;0.30;155.31;;;;;9.70;1.00;;;;;;2272202;61;1111;-86
2024/02/14 05:30:54;341881.00;1.14;589.91;97324.00;0.32;168.95;;;;;9.70;1.00;;;;;;2272147;61;1119;-87
2024/02/14 05:33:22;418614.00;1.40;721.81;131513.00;0.44;227.94;;;;;9.60;1.00;;;;;;2272193;61;1356;-84
2024/02/14 05:35:49;239166.00;0.80;413.32;97308.00;0.32;168.92;;;;;9.40;1.00;;;;;;2272151;61;1120;-83
2024/02/14 05:38:19;289356.00;0.96;499.62;88942.00;0.30;154.48;;;;;9.70;1.00;;;;;;2271955;61;2011;-84
2024/02/14 05:40:46;119774312.00;399.25;69605432.00;93328.00;0.31;162.05;;;;;9.90;1.00;;;;;;2272112;61;1991;-85
2024/02/14 05:43:13;41325.00;0.14;72.18;0.00;0.00;0.62;;;;;10.30;1.00;;;;;;2272114;61;1419;-85
2024/02/14 05:45:40;21155.00;0.07;37.27;0.00;0.00;0.62;;;;;10.20;1.00;;;;;;2272127;61;1151;-86
2024/02/14 05:48:08;133105.00;0.44;230.68;0.00;0.00;0.62;;;;;10.20;1.00;;;;;;2272306;61;1027;-85
2024/02/14 05:50:36;67365.00;0.22;117.21;0.00;0.00;0.62;;;;;9.60;1.00;;;;;;2272865;61;1134;-86
2024/02/14 05:53:05;45341.00;0.15;79.13;0.00;0.00;0.62;;;;;9.60;1.00;;;;;;2272865;61;1316;-86
2024/02/14 05:55:33;216888.00;0.72;374.99;68532.00;0.23;119.22;;;;;9.40;1.00;;;;;;2272879;61;912;-84
2024/02/14 05:58:00;1773.00;0.01;3.69;0.00;0.00;0.62;;;;;9.50;1.00;;;;;;2272739;61;1114;-86
2024/02/14 06:00:27;8064.00;0.03;14.59;0.00;0.00;0.62;;;;;9.90;1.00;;;;;;2272836;61;1992;-86
2024/02/14 06:02:54;60382.00;0.20;105.14;0.00;0.00;0.62;;;;;9.90;1.00;;;;;;2272799;61;1355;-85
2024/02/14 06:05:21;55373.00;0.18;96.48;0.00;0.00;0.62;;;;;9.90;1.00;;;;;;2272805;61;1063;-87
2024/02/14 06:07:50;152906.00;0.51;264.82;46458.00;0.15;81.06;;;;;10.30;1.00;;;;;;2272774;61;1063;-86
2024/02/14 06:10:17;66663.00;0.22;115.99;0.00;0.00;0.62;;;;;11.10;1.00;;;;;;2272816;61;1080;-87
2024/02/14 06:12:44;50100.00;0.17;87.36;0.00;0.00;0.62;;;;;11.70;1.00;;;;;;2272675;61;2402;-88
2024/02/14 06:15:11;74047.00;0.25;128.75;0.00;0.00;0.62;;;;;11.90;1.00;;;;;;2272802;61;1896;-86
2024/02/14 06:17:38;231162.00;0.77;399.55;33913.00;0.11;59.36;;;;;11.70;1.00;;;;;;2272821;61;1297;-87
2024/02/14 06:20:07;0.00;0.00;0.62;0.00;0.00;0.62;;;;;11.30;1.00;;;;;;2272776;61;1919;-85
2024/02/14 06:22:34;86682.00;0.29;150.58;0.00;0.00;0.62;;;;;10.70;1.00;;;;;;2272757;61;1306;-86
2024/02/14 06:25:04;256771.00;0.86;443.60;40639.00;0.14;70.99;;;;;10.30;1.00;;;;;;2272773;61;1099;-85
2024/02/14 06:27:32;184426.00;0.61;319.11;11975.00;0.04;21.37;;;;;10.60;1.00;;;;;;2272753;61;1218;-86
2024/02/14 06:30:00;96161.00;0.32;166.94;0.00;0.00;0.62;;;;;11.20;1.00;;;;;;2272673;61;1070;-88
2024/02/14 06:32:27;54019.00;0.18;94.14;0.00;0.00;0.62;;;;;11.70;1.00;;;;;;2272731;61;1367;-86
2024/02/14 06:34:54;261184.00;0.87;451.18;36330.00;0.12;63.54;;;;;11.80;1.00;;;;;;2272743;61;1147;-85
2024/02/14 06:37:21;88772.00;0.30;154.19;0.00;0.00;0.62;;;;;11.40;1.00;;;;;;2272751;61;926;-85
2024/02/14 06:39:49;146054.00;0.49;253.01;15574.00;0.05;27.60;;;;;11.50;1.00;;;;;;2272700;61;1915;-87
2024/02/14 06:42:18;23286.00;0.08;40.96;0.00;0.00;0.62;;;;;11.40;1.00;;;;;;2272702;61;916;-87
2024/02/14 06:44:45;47518.00;0.16;82.89;0.00;0.00;0.62;;;;;11.80;1.00;;;;;;2272697;61;1047;-87
2024/02/14 06:47:12;151453.00;0.50;262.31;11254.00;0.04;20.12;;;;;11.70;1.00;;;;;;2272692;61;1080;-86
2024/02/14 06:52:14;147744.00;0.49;255.92;49272.00;0.16;85.93;;;;;11.60;1.00;;;;;;2295613;56;1814;-85
2024/02/14 06:54:41;25988.00;0.09;45.64;0.00;0.00;0.62;;;;;11.50;1.00;;;;;;2268465;61;1248;-85
2024/02/14 06:57:08;107666.00;0.36;186.80;0.00;0.00;0.62;;;;;11.40;1.00;;;;;;2268585;61;1090;-86
2024/02/14 06:59:37;9621.00;0.03;17.29;0.00;0.00;0.62;;;;;11.50;1.00;;;;;;2268374;61;2007;-86
2024/02/14 07:02:06;114041.00;0.38;197.80;0.00;0.00;0.62;;;;;11.80;1.00;;;;;;2268539;61;1101;-87
2024/02/14 07:04:32;9262.00;0.03;16.67;0.00;0.00;0.62;;;;;11.70;1.00;;;;;;2268580;61;1368;-86
2024/02/14 07:07:00;69678.00;0.23;121.20;0.00;0.00;0.62;;;;;11.00;1.00;;;;;;2268558;61;1107;-85
2024/02/14 07:09:27;237307.00;0.79;410.12;28579.00;0.10;50.12;;;;;10.80;1.00;;;;;;2268531;61;1041;-88
2024/02/14 07:11:56;39320.00;0.13;68.71;0.00;0.00;0.62;;;;;10.90;1.00;;;;;;2268527;61;1027;-85
2024/02/14 07:14:23;39310.00;0.13;68.69;0.00;0.00;0.62;;;;;10.90;1.00;;;;;;2268517;61;1289;-86
2024/02/14 07:16:52;90669.00;0.30;157.46;0.00;0.00;0.62;;;;;10.80;1.00;;;;;;2268532;61;1074;-85
2024/02/14 07:19:19;126309.00;0.42;218.96;0.00;0.00;0.62;;;;;11.30;1.00;;;;;;2268476;61;1052;-86
2024/02/14 07:21:46;28299.00;0.09;49.64;0.00;0.00;0.62;;;;;11.70;1.00;;;;;;2268385;61;2001;-84
2024/02/14 07:24:12;40058.00;0.13;69.99;0.00;0.00;0.62;;;;;11.50;1.00;;;;;;2268358;61;1366;-85
2024/02/14 07:26:41;83345.00;0.28;144.81;0.00;0.00;0.62;;;;;11.60;1.00;;;;;;2268513;61;1039;-84
2024/02/14 07:29:08;77952.00;0.26;135.50;0.00;0.00;0.62;;;;;11.40;1.00;;;;;;2268479;61;1088;-85
2024/02/14 07:31:35;175856.00;0.59;304.35;22801.00;0.08;40.12;;;;;11.20;1.00;;;;;;2268538;61;1122;-87
2024/02/14 07:34:03;239602.00;0.80;414.07;0.00;0.00;0.62;;;;;11.00;1.00;;;;;;2268377;61;1344;-84
2024/02/14 07:36:30;147131.00;0.49;254.86;0.00;0.00;0.62;;;;;10.80;1.00;;;;;;2268449;61;1117;-85
2024/02/14 07:38:57;170729.00;0.57;295.52;0.00;0.00;0.62;;;;;11.40;1.00;;;;;;2268483;61;1098;-87
2024/02/14 07:41:24;0.00;0.00;0.62;0.00;0.00;0.62;;;;;11.80;1.00;;;;;;2268221;61;2008;-85
2024/02/14 07:43:52;135669.00;0.45;235.10;31678.00;0.11;55.49;;;;;12.00;1.00;;;;;;2268392;61;1320;-87
2024/02/14 07:46:19;25536.00;0.09;44.86;0.00;0.00;0.62;;;;;12.20;1.00;;;;;;2268424;61;1083;-87
2024/02/14 07:48:46;65520.00;0.22;114.02;0.00;0.00;0.62;;;;;12.20;1.00;;;;;;2268426;61;947;-86
2024/02/14 07:51:15;157220.00;0.52;272.25;0.00;0.00;0.62;;;;;11.80;1.00;;;;;;2268385;61;1090;-88
2024/02/14 07:53:42;130737.00;0.44;226.60;0.00;0.00;0.62;;;;;11.60;1.00;;;;;;2268285;61;1445;-88
2024/02/14 07:56:09;99138.00;0.33;172.08;0.00;0.00;0.62;;;;;11.30;1.00;;;;;;2268367;61;904;-85
2024/02/14 07:58:35;55846.00;0.19;97.30;0.00;0.00;0.62;;;;;11.60;1.00;;;;;;2268469;61;1042;-86
2024/02/14 08:01:03;66496.00;0.22;115.71;0.00;0.00;0.62;;;;;11.80;1.00;;;;;;2268347;61;1919;-85
2024/02/14 08:03:30;64795.00;0.22;112.77;0.00;0.00;0.62;;;;;12.00;1.00;;;;;;2268380;61;1395;-87
2024/02/14 08:05:58;116990304.00;389.97;64859576.00;0.00;0.00;0.62;;;;;12.30;1.00;;;;;;2268367;61;1027;-87
2024/02/14 08:08:27;405099.00;1.35;698.57;0.00;0.00;0.62;;;;;12.60;1.00;;;;;;2268355;61;1130;-85
2024/02/14 08:10:54;36907.00;0.12;64.54;0.00;0.00;0.62;;;;;12.70;1.00;;;;;;2268187;61;1023;-86
2024/02/14 08:13:21;292677.00;0.98;505.33;17486.00;0.06;30.92;;;;;12.70;1.00;;;;;;2268199;61;1394;-86
2024/02/14 08:15:47;76408.00;0.25;132.83;0.00;0.00;0.62;;;;;13.00;1.00;;;;;;2268371;61;1051;-87
2024/02/14 08:18:14;221859.00;0.74;383.54;8361.00;0.03;15.11;;;;;12.90;1.00;;;;;;2268381;61;1108;-87
2024/02/14 08:20:42;75889.00;0.25;131.94;0.00;0.00;0.62;;;;;12.90;1.00;;;;;;2267974;61;1923;-87
2024/02/14 08:23:08;287439.00;0.96;496.33;30272.00;0.10;53.05;;;;;13.00;1.00;;;;;;2267931;61;1539;-87
2024/02/14 08:25:37;53533.00;0.18;93.30;0.00;0.00;0.62;;;;;13.30;1.00;;;;;;2268312;61;936;-87
2024/02/14 08:28:04;0.00;0.00;0.62;0.00;0.00;0.62;;;;;13.30;1.00;;;;;;2268327;61;1134;-87
2024/02/14 08:30:30;37508.00;0.13;65.58;0.00;0.00;0.62;;;;;13.20;1.00;;;;;;2268298;61;1106;-86
2024/02/14 08:32:57;285358.00;0.95;492.75;98493.00;0.33;170.97;;;;;13.10;1.00;;;;;;2268192;61;1391;-86
2024/02/14 08:35:24;213453.00;0.71;369.08;242.00;0.00;1.04;;;;;13.30;1.00;;;;;;2268248;61;2286;-87
2024/02/14 08:37:51;141269.00;0.47;244.76;29688.00;0.10;52.04;;;;;13.20;1.00;;;;;;2268280;61;1058;-87
2024/02/14 08:40:18;305982.00;1.02;528.20;81183.00;0.27;141.08;;;;;13.40;1.00;;;;;;2268259;61;1923;-87
2024/02/14 08:42:47;0.00;0.00;0.62;0.00;0.00;0.62;;;;;13.50;1.00;;;;;;2268255;61;1301;-88
2024/02/14 08:45:14;179230.00;0.60;310.16;38128.00;0.13;66.65;;;;;13.50;1.00;;;;;;2268239;61;1794;-88
2024/02/14 08:47:41;0.00;0.00;0.62;0.00;0.00;0.62;;;;;13.70;1.00;;;;;;2268280;61;2762;-88
2024/02/14 08:50:08;27406.00;0.09;48.09;0.00;0.00;0.62;;;;;14.10;1.00;;;;;;2268286;61;996;-87
2024/02/14 08:52:37;136274.00;0.45;236.15;7695.00;0.03;13.96;;;;;14.30;1.00;;;;;;2268254;61;1305;-87
2024/02/14 08:55:06;32878.00;0.11;57.56;0.00;0.00;0.62;;;;;14.20;1.00;;;;;;2268225;61;913;-86
2024/02/14 08:57:33;8957.00;0.03;16.14;0.00;0.00;0.62;;;;;14.40;1.00;;;;;;2268177;61;1114;-87
2024/02/14 09:00:03;7736.00;0.03;14.03;0.00;0.00;0.62;;;;;14.40;1.00;;;;;;2268222;61;1998;-87
2024/02/14 09:02:29;0.00;0.00;0.62;0.00;0.00;0.62;;;;;14.50;1.00;;;;;;2268122;61;1415;-88
2024/02/14 09:04:57;49495.00;0.16;86.31;0.00;0.00;0.62;;;;;14.70;1.00;;;;;;2268215;61;1048;-87
2024/02/14 09:07:24;264984.00;0.88;457.72;30140.00;0.10;52.83;;;;;14.60;1.00;;;;;;2268109;61;1743;-89
2024/02/14 09:09:50;166205.00;0.55;287.73;38305.00;0.13;66.96;;;;;14.80;1.00;;;;;;2268187;61;864;-86
2024/02/14 09:12:17;23451.00;0.08;41.25;0.00;0.00;0.62;;;;;14.80;1.00;;;;;;2268031;61;1055;-87
2024/02/14 09:14:44;263666.00;0.88;455.45;35306.00;0.12;61.77;;;;;15.10;1.00;;;;;;2268124;61;2060;-87
2024/02/14 09:17:12;50796.00;0.17;88.56;0.00;0.00;0.62;;;;;15.10;1.00;;;;;;2268175;61;1007;-88
2024/02/14 09:19:39;174234.00;0.58;301.56;74873.00;0.25;130.18;;;;;15.10;1.00;;;;;;2268142;61;990;-88
2024/02/14 09:22:06;165544.00;0.55;286.59;41614.00;0.14;72.68;;;;;15.10;1.00;;;;;;2268118;61;2005;-88
2024/02/14 09:24:33;109388.00;0.36;189.77;0.00;0.00;0.62;;;;;15.30;1.00;;;;;;2268648;61;1387;-87
2024/02/14 09:27:02;137733.00;0.46;238.66;0.00;0.00;0.62;;;;;15.30;1.00;;;;;;2268826;61;1055;-86
2024/02/14 09:29:29;146968.00;0.49;254.58;2219.00;0.01;4.47;;;;;15.00;1.00;;;;;;2268829;61;1762;-86
2024/02/14 09:31:56;59147.00;0.20;103.00;0.00;0.00;0.62;;;;;14.70;1.00;;;;;;2268777;61;1671;-86
2024/02/14 09:34:25;269213.00;0.90;464.99;8459.00;0.03;15.28;;;;;14.50;1.00;;;;;;2268771;61;1617;-87
2024/02/14 09:36:53;153375.00;0.51;265.62;0.00;0.00;0.62;;;;;13.60;1.00;;;;;;2268821;61;1147;-85
2024/02/14 09:39:20;344112.00;1.15;593.74;7275.00;0.02;13.23;;;;;13.60;1.00;;;;;;2268793;61;1751;-86
2024/02/14 09:41:54;658424.00;2.19;1135.21;83577.00;0.28;145.22;;;;;13.90;1.00;;;;;;2268736;61;1904;-87
2024/02/14 09:44:23;121658.00;0.41;210.94;1498.00;0.00;3.22;;;;;14.20;1.00;;;;;;2268780;61;1795;-86
2024/02/14 09:46:50;196566.00;0.66;340.01;0.00;0.00;0.62;;;;;14.70;1.00;;;;;;2268806;61;1304;-86
2024/02/14 09:49:18;225510.00;0.75;389.82;11911.00;0.04;21.26;;;;;14.50;1.00;;;;;;2268781;61;1078;-87
2024/02/14 09:51:49;61471.00;0.20;107.02;0.00;0.00;0.62;;;;;14.50;1.00;;;;;;2268636;61;2151;-88